createdAt,value
2022-10-22T00:01:04.800Z,101009.44
2022-10-22T00:03:34.107Z,100801.66
2022-10-22T00:06:03.651Z,100987.44
2022-10-22T00:08:33.029Z,100938.13
2022-10-22T00:11:10.124Z,101074.53
2022-10-22T00:13:41.065Z,100916.59
2022-10-22T00:16:10.706Z,101043.94
2022-10-22T00:18:40.087Z,101059.66
2022-10-22T00:21:09.423Z,100884.28
2022-10-22T00:23:41.953Z,100780.88
2022-10-22T00:26:11.842Z,101036.19
2022-10-22T00:28:42.354Z,100886.56
2022-10-22T00:31:13.394Z,100974.22
2022-10-22T00:33:43.371Z,100839.56
2022-10-22T00:36:12.982Z,101042.09
2022-10-22T00:38:42.253Z,100757.03
2022-10-22T00:41:11.271Z,101005.25
2022-10-22T00:43:59.375Z,100939.22
2022-10-22T00:46:29.512Z,100766.69
2022-10-22T00:49:05.826Z,101000.34
2022-10-22T00:51:37.465Z,101041.75
2022-10-22T00:54:09.982Z,100754.06
2022-10-22T00:56:53.416Z,100775.75
2022-10-22T00:59:23.995Z,100786.34
2022-10-22T01:01:54.106Z,101038.69
2022-10-22T01:04:23.237Z,100858.00
2022-10-22T01:06:52.764Z,101011.97
2022-10-22T01:09:32.016Z,100978.31
2022-10-22T01:12:06.342Z,100992.13
2022-10-22T01:14:49.236Z,101001.88
2022-10-22T01:17:27.806Z,101029.78
2022-10-22T01:20:06.802Z,100837.50
2022-10-22T01:22:40.803Z,100961.22
2022-10-22T01:25:17.861Z,101000.84
2022-10-22T01:27:59.912Z,100827.47
2022-10-22T01:30:30.352Z,100885.72
2022-10-22T01:33:03.627Z,100971.75
2022-10-22T01:35:37.640Z,100986.13
2022-10-22T01:38:10.737Z,100861.00
2022-10-22T01:40:41.293Z,100899.94
2022-10-22T01:43:12.114Z,100994.72
2022-10-22T01:45:45.789Z,100862.47
2022-10-22T01:48:23.701Z,100988.44
2022-10-22T01:51:08.753Z,100956.03
2022-10-22T01:53:49.154Z,100781.22
2022-10-22T01:56:32.775Z,100765.06
2022-10-22T01:59:09.099Z,100769.06
2022-10-22T02:01:50.325Z,100963.91
2022-10-22T02:04:24.868Z,100963.84
2022-10-22T02:06:56.698Z,100869.66
2022-10-22T02:09:27.757Z,100864.38
2022-10-22T02:14:34.234Z,100946.81
2022-10-22T02:17:07.048Z,100724.47
2022-10-22T02:19:42.037Z,100963.19
2022-10-22T02:22:11.343Z,100900.91
2022-10-22T02:24:40.949Z,100855.72
2022-10-22T02:27:15.812Z,100736.13
2022-10-22T02:29:49.314Z,100952.09
2022-10-22T02:32:23.331Z,100685.41
2022-10-22T02:34:53.486Z,100892.69
2022-10-22T02:37:23.507Z,100802.63
2022-10-22T02:39:54.157Z,100931.09
2022-10-22T02:44:05.534Z,100825.16
2022-10-22T02:46:32.612Z,100660.63
2022-10-22T02:49:03.040Z,100769.84
2022-10-22T02:51:32.482Z,100913.03
2022-10-22T02:54:02.032Z,100646.38
2022-10-22T02:56:31.090Z,100697.88
2022-10-22T02:59:00.333Z,100694.03
2022-10-22T03:01:30.899Z,100633.13
2022-10-22T03:03:59.785Z,100897.53
2022-10-22T03:06:31.990Z,100746.06
2022-10-22T03:09:01.242Z,100603.59
2022-10-22T03:11:31.001Z,100649.56
2022-10-22T03:14:00.306Z,100799.66
2022-10-22T03:16:29.799Z,100906.94
2022-10-22T03:18:58.937Z,100868.66
2022-10-22T03:21:35.944Z,100860.53
2022-10-22T03:24:09.812Z,100754.44
2022-10-22T03:26:40.848Z,100887.94
2022-10-22T03:29:11.070Z,100877.88
2022-10-22T03:31:40.180Z,100776.22
2022-10-22T03:34:09.309Z,100824.03
2022-10-22T03:36:40.573Z,100621.22
2022-10-22T03:39:10.536Z,100880.75
2022-10-22T03:41:39.591Z,100660.63
2022-10-22T03:44:08.724Z,100780.63
2022-10-22T03:46:37.821Z,100768.63
2022-10-22T03:49:07.191Z,100873.31
2022-10-22T03:51:36.278Z,100696.34
2022-10-22T03:54:06.902Z,100750.16
2022-10-22T03:56:36.036Z,100801.72
2022-10-22T03:59:06.027Z,100845.72
2022-10-22T04:01:35.996Z,100718.16
2022-10-22T04:04:07.357Z,100854.91
2022-10-22T04:06:38.297Z,100677.78
2022-10-22T04:09:08.825Z,100853.63
2022-10-22T04:11:38.144Z,100779.59
2022-10-22T04:14:07.857Z,100851.13
2022-10-22T04:16:38.695Z,100803.66
2022-10-22T04:19:08.218Z,100711.50
2022-10-22T04:21:38.622Z,100782.00
2022-10-22T04:24:09.557Z,100844.03
2022-10-22T04:26:38.630Z,100835.41
2022-10-22T04:29:11.916Z,100821.00
2022-10-22T04:31:46.384Z,100765.06
2022-10-22T04:34:15.887Z,100853.34
2022-10-22T04:36:44.982Z,100698.22
2022-10-22T04:39:19.329Z,100651.81
2022-10-22T04:41:48.813Z,100873.81
2022-10-22T04:44:18.575Z,100602.50
2022-10-22T04:46:48.834Z,100599.09
2022-10-22T04:49:19.991Z,100743.06
2022-10-22T04:51:49.356Z,100648.91
2022-10-22T04:54:20.007Z,100860.56
2022-10-22T04:56:58.006Z,100755.31
2022-10-22T04:59:27.640Z,100715.03
2022-10-22T05:02:00.739Z,100783.72
2022-10-22T05:04:32.474Z,100838.91
2022-10-22T05:07:01.641Z,100782.97
2022-10-22T05:09:35.411Z,100819.03
2022-10-22T05:12:04.243Z,100818.56
2022-10-22T05:14:38.533Z,100788.38
2022-10-22T05:17:10.734Z,100585.91
2022-10-22T05:19:39.842Z,100702.88
2022-10-22T05:22:27.427Z,100843.06
2022-10-22T05:24:58.269Z,100742.38
2022-10-22T05:27:27.312Z,100793.56
2022-10-22T05:29:56.727Z,100637.19
2022-10-22T05:32:26.313Z,100668.41
2022-10-22T05:35:04.626Z,100614.22
2022-10-22T05:37:34.404Z,100624.09
2022-10-22T05:40:19.529Z,100832.97
2022-10-22T05:43:02.305Z,100786.38
2022-10-22T05:45:31.351Z,100616.47
2022-10-22T05:48:02.270Z,100735.06
2022-10-22T05:50:31.963Z,100698.03
2022-10-22T05:53:01.678Z,100838.78
2022-10-22T05:55:37.111Z,100708.72
2022-10-22T05:58:08.035Z,100583.66
2022-10-22T06:00:37.537Z,100599.63
2022-10-22T06:03:07.199Z,100749.34
2022-10-22T06:05:38.044Z,100747.97
2022-10-22T06:08:09.186Z,100641.97
2022-10-22T06:10:45.123Z,100748.16
2022-10-22T06:13:15.976Z,100731.81
2022-10-22T06:15:45.859Z,100801.88
2022-10-22T06:18:15.033Z,100801.84
2022-10-22T06:20:45.883Z,100804.09
2022-10-22T06:23:18.149Z,100722.28
2022-10-22T06:25:59.922Z,100612.13
2022-10-22T06:28:29.477Z,100749.09
2022-10-22T06:30:59.722Z,100770.03
2022-10-22T06:33:35.059Z,100582.91
2022-10-22T06:36:19.129Z,100801.69
2022-10-22T06:38:48.377Z,100663.41
2022-10-22T06:41:23.033Z,100623.25
2022-10-22T06:44:03.984Z,100776.97
2022-10-22T06:46:39.051Z,100680.88
2022-10-22T06:49:14.619Z,100727.72
2022-10-22T06:51:46.532Z,100812.44
2022-10-22T06:54:16.199Z,100807.69
2022-10-22T06:57:01.221Z,100739.59
2022-10-22T06:59:30.466Z,100824.34
2022-10-22T07:02:02.787Z,100728.63
2022-10-22T07:04:34.900Z,100829.03
2022-10-22T07:07:04.919Z,100583.94
2022-10-22T07:09:37.467Z,100791.88
2022-10-22T07:12:10.740Z,100570.09
2022-10-22T07:14:43.200Z,100563.31
2022-10-22T07:17:15.594Z,100764.75
2022-10-22T07:19:49.692Z,100575.72
2022-10-22T07:22:21.457Z,100597.00
2022-10-22T07:24:53.869Z,100692.59
2022-10-22T07:27:27.487Z,100648.59
2022-10-22T07:30:01.186Z,100785.19
2022-10-22T07:32:30.782Z,100787.88
2022-10-22T07:35:07.917Z,100778.34
2022-10-22T07:37:42.128Z,100690.81
2022-10-22T07:40:12.560Z,100564.53
2022-10-22T07:42:54.664Z,100686.72
2022-10-22T07:45:38.256Z,100731.13
2022-10-22T07:48:11.357Z,100549.00
2022-10-22T07:51:00.524Z,100668.50
2022-10-22T07:53:36.457Z,100674.75
2022-10-22T07:56:14.112Z,100636.09
2022-10-22T07:58:45.912Z,100631.09
2022-10-22T08:01:18.276Z,100500.06
2022-10-22T08:03:49.020Z,100749.63
2022-10-22T08:06:24.359Z,100553.53
2022-10-22T08:09:56.949Z,100789.97
2022-10-22T08:12:30.780Z,100765.81
2022-10-22T08:15:01.628Z,100778.06
2022-10-22T08:17:31.230Z,100621.94
2022-10-22T08:20:00.832Z,100695.53
2022-10-22T08:22:41.146Z,100691.00
2022-10-22T08:25:16.081Z,100579.56
2022-10-22T08:28:22.126Z,100707.09
2022-10-22T08:37:57.249Z,100648.41
2022-10-22T08:41:18.567Z,100646.69
2022-10-22T08:45:24.827Z,100675.31
2022-10-22T08:48:11.655Z,100655.00
2022-10-22T08:50:45.869Z,100778.16
2022-10-22T08:53:25.459Z,100607.25
2022-10-22T08:56:02.807Z,100564.66
2022-10-22T08:58:41.651Z,100767.25
2022-10-22T09:01:26.044Z,100597.16
2022-10-22T09:04:32.200Z,100559.06
2022-10-22T09:07:05.907Z,100548.28
2022-10-22T09:09:55.337Z,100763.38
2022-10-22T09:12:28.608Z,100645.59
2022-10-22T09:14:58.426Z,100665.22
2022-10-22T09:17:49.354Z,100535.59
2022-10-22T09:20:33.963Z,100665.78
2022-10-22T09:23:45.441Z,100685.69
2022-10-22T09:26:27.698Z,100499.88
2022-10-22T09:29:02.203Z,100502.09
2022-10-22T09:31:40.830Z,100644.03
2022-10-22T09:34:15.306Z,100670.72
2022-10-22T09:37:01.962Z,100610.50
2022-10-22T09:39:38.283Z,100609.16
2022-10-22T09:42:08.860Z,100707.50
2022-10-22T09:48:08.844Z,100595.38
2022-10-22T09:50:44.494Z,100700.59
2022-10-22T09:53:25.616Z,100451.16
2022-10-22T09:58:28.020Z,100499.59
2022-10-22T10:01:00.269Z,100618.69
2022-10-22T10:03:35.967Z,100466.31
2022-10-22T10:06:14.049Z,100684.25
2022-10-22T10:08:51.690Z,100556.00
2022-10-22T10:11:30.032Z,100617.97
2022-10-22T10:14:12.586Z,100677.53
2022-10-22T10:16:55.507Z,100597.13
2022-10-22T10:19:38.278Z,100591.22
2022-10-22T10:22:27.675Z,100473.22
2022-10-22T10:25:14.003Z,100576.97
2022-10-22T10:27:48.938Z,100653.50
2022-10-22T10:30:24.130Z,100477.59
2022-10-22T10:33:39.799Z,100470.47
2022-10-22T10:36:22.454Z,100593.00
2022-10-22T10:39:13.628Z,100425.53
2022-10-22T10:42:03.279Z,100663.56
2022-10-22T10:45:02.990Z,100472.28
2022-10-22T10:47:59.466Z,100453.81
2022-10-22T10:50:50.486Z,100691.97
2022-10-22T10:53:33.841Z,100453.38
2022-10-22T10:56:11.524Z,100584.09
2022-10-22T10:59:04.754Z,100677.06
2022-10-22T11:01:47.556Z,100429.50
2022-10-22T11:04:55.617Z,100565.38
2022-10-22T11:07:45.172Z,100663.88
2022-10-22T11:10:27.952Z,100447.19
2022-10-22T11:13:04.450Z,100660.22
2022-10-22T11:15:38.254Z,100625.50
2022-10-22T11:18:15.140Z,100662.00
2022-10-22T11:21:17.061Z,100627.88
2022-10-22T11:23:53.265Z,100638.31
2022-10-22T11:26:35.287Z,100450.41
2022-10-22T11:29:12.737Z,100515.41
2022-10-22T11:31:49.557Z,100637.53
2022-10-22T11:34:38.872Z,100597.50
2022-10-22T11:37:17.836Z,100388.13
2022-10-22T11:39:55.426Z,100588.50
2022-10-22T11:42:40.864Z,100477.94
2022-10-22T11:45:30.013Z,100579.41
2022-10-22T11:48:09.363Z,100473.25
2022-10-22T11:50:53.116Z,100377.34
2022-10-22T11:53:30.765Z,100544.44
2022-10-22T11:56:27.300Z,100500.94
2022-10-22T11:59:30.706Z,100436.69
2022-10-22T12:02:01.072Z,100602.34
2022-10-22T12:04:54.516Z,100498.22
2022-10-22T12:08:12.171Z,100379.69
2022-10-22T12:11:31.035Z,100388.66
2022-10-22T12:14:29.870Z,100370.47
2022-10-22T12:17:04.633Z,100585.59
2022-10-22T12:19:38.525Z,100482.34
2022-10-22T12:22:21.328Z,100445.84
2022-10-22T12:24:52.679Z,100415.31
2022-10-22T12:27:36.549Z,100481.69
2022-10-22T12:30:36.448Z,100385.75
2022-10-22T12:33:22.496Z,100445.72
2022-10-22T12:36:22.341Z,100438.91
2022-10-22T12:39:11.171Z,100566.81
2022-10-22T12:42:23.639Z,100353.22
2022-10-22T12:45:47.590Z,100430.88
2022-10-22T12:52:22.737Z,100546.59
2022-10-22T12:55:05.267Z,100548.88
2022-10-22T12:57:48.800Z,100446.72
2022-10-22T13:00:29.839Z,100351.28
2022-10-22T13:03:09.360Z,100439.13
2022-10-22T13:05:40.268Z,100342.47
2022-10-22T13:08:40.656Z,100559.72
2022-10-22T13:12:16.761Z,100548.88
2022-10-22T13:14:57.975Z,100296.47
2022-10-22T13:18:16.901Z,100325.00
2022-10-22T13:21:11.622Z,100334.94
2022-10-22T13:23:55.713Z,100345.97
2022-10-22T13:30:22.095Z,100534.56
2022-10-22T13:33:07.135Z,100320.50
2022-10-22T13:35:43.955Z,100515.13
2022-10-22T13:38:52.090Z,100557.78
2022-10-22T13:42:09.395Z,100407.34
2022-10-22T13:45:05.347Z,100324.31
2022-10-22T13:47:48.443Z,100409.25
2022-10-22T13:51:03.120Z,100370.19
2022-10-22T13:53:54.964Z,100453.09
2022-10-22T13:57:16.133Z,100316.19
2022-10-22T17:39:58.121Z,100338.91
2022-10-22T17:42:54.255Z,100428.63
2022-10-22T17:45:39.847Z,100417.25
2022-10-22T17:48:56.743Z,100282.75
2022-10-22T17:52:32.145Z,100319.75
2022-10-22T17:56:35.353Z,100444.03
2022-10-22T17:59:32.909Z,100240.91
2022-10-22T18:03:55.035Z,100215.06
2022-10-22T18:06:30.075Z,100297.91
2022-10-22T18:09:28.475Z,100197.34
2022-10-22T18:12:07.703Z,100401.75
2022-10-22T18:14:44.179Z,100398.22
2022-10-22T18:17:26.986Z,100356.72
2022-10-22T18:20:04.533Z,100386.84
2022-10-22T18:27:05.367Z,100155.44
2022-10-22T18:34:13.243Z,100269.44
2022-10-22T18:37:08.630Z,100327.59
2022-10-22T18:58:00.803Z,100373.59
2022-10-22T19:10:24.657Z,100314.22
2022-10-22T19:13:43.002Z,100176.38
2022-10-22T19:16:32.022Z,100284.78
2022-10-22T19:19:34.522Z,100190.72
2022-10-22T19:27:09.375Z,100366.59
2022-10-22T19:34:33.463Z,100232.84
2022-10-22T19:41:00.153Z,100164.19
2022-10-22T19:44:27.063Z,100285.47
2022-10-22T19:48:03.792Z,100373.69
2022-10-22T19:51:21.231Z,100247.34
2022-10-22T19:54:29.382Z,100375.13
2022-10-22T20:00:24.570Z,100164.19
2022-10-22T20:03:24.796Z,100188.06
2022-10-22T20:06:32.362Z,100368.03
2022-10-22T20:09:24.215Z,100362.97
2022-10-22T20:12:36.423Z,100138.72
2022-10-22T20:18:45.533Z,100369.63
2022-10-22T20:22:34.743Z,100376.50
2022-10-22T20:25:23.773Z,100274.69
2022-10-22T20:28:00.873Z,100326.28
2022-10-22T20:30:37.078Z,100285.75
2022-10-22T20:33:52.000Z,100393.53
2022-10-22T20:37:20.396Z,100254.91
2022-10-22T20:40:53.216Z,100292.84
2022-10-22T20:43:40.077Z,100231.16
2022-10-22T20:51:07.380Z,100144.59
2022-10-22T20:54:22.589Z,100226.13
2022-10-22T20:57:36.406Z,100137.66
2022-10-22T21:04:27.713Z,100344.63
2022-10-22T21:07:30.436Z,100359.63
2022-10-22T21:14:00.376Z,100330.75
2022-10-22T21:16:46.677Z,100210.88
2022-10-22T21:20:08.016Z,100326.88
2022-10-22T21:22:48.938Z,100204.34
2022-10-22T21:25:23.156Z,100141.66
2022-10-22T21:28:17.846Z,100215.53
2022-10-22T21:30:56.770Z,100040.78
2022-10-22T21:36:32.400Z,100107.09
2022-10-22T21:39:18.537Z,100196.03
2022-10-22T21:42:07.602Z,100113.09
2022-10-22T21:45:01.890Z,100192.34
2022-10-22T21:47:38.747Z,100193.91
2022-10-22T21:50:36.387Z,100283.91
2022-10-22T21:53:29.835Z,100168.47
2022-10-22T21:56:12.497Z,100144.38
2022-10-22T21:59:07.054Z,100131.38
2022-10-22T22:01:37.416Z,100191.59
2022-10-22T22:04:37.394Z,100275.91
2022-10-22T22:07:25.035Z,100026.75
2022-10-22T22:10:03.948Z,100008.06
2022-10-22T22:12:35.545Z,100163.06
2022-10-22T22:15:05.881Z,100287.53
2022-10-22T22:17:35.590Z,100168.56
2022-10-22T22:20:11.253Z,100055.53
2022-10-22T22:22:40.768Z,100175.22
2022-10-22T22:25:12.768Z,100155.13
2022-10-22T22:27:45.945Z,100201.63
2022-10-22T22:30:19.802Z,100024.84
2022-10-22T22:32:50.462Z,100253.84
2022-10-22T22:35:32.721Z,100150.94
2022-10-22T22:38:04.246Z,100275.19
2022-10-22T22:40:48.060Z,100101.84
2022-10-22T22:43:28.077Z,100039.28
2022-10-22T22:46:06.439Z,100088.91
2022-10-22T22:48:38.815Z,100034.41
2022-10-22T22:51:12.805Z,100147.16
2022-10-22T22:53:50.733Z,100153.09
2022-10-22T22:56:29.327Z,100127.47
2022-10-22T22:59:03.042Z,100105.88
2022-10-22T23:04:50.159Z,100175.56
2022-10-22T23:07:31.824Z,100115.81
2022-10-22T23:10:50.633Z,100114.88
2022-10-22T23:13:37.627Z,100122.25
2022-10-22T23:16:23.939Z,100210.66
2022-10-22T23:19:08.178Z,100126.88
2022-10-22T23:22:03.746Z,100120.66
2022-10-22T23:24:36.172Z,100196.03
2022-10-22T23:27:08.949Z,100179.97
2022-10-22T23:29:38.257Z,100258.25
2022-10-22T23:32:14.452Z,100138.88
2022-10-22T23:34:44.204Z,100096.06
2022-10-22T23:37:13.806Z,100168.75
2022-10-22T23:39:48.170Z,100157.53
2022-10-22T23:42:17.571Z,100086.38
2022-10-22T23:44:48.885Z,100021.25
2022-10-22T23:47:18.040Z,100178.78
2022-10-22T23:50:23.040Z,100135.91
2022-10-22T23:53:00.007Z,100149.91
2022-10-22T23:55:38.510Z,100081.81
2022-10-22T23:58:07.593Z,100226.19
